Time;durP1;ratioP1;P1;durP2;ratioP2;P2;SDS_P1;SDS_P2;PMS_P1;PMS_P2;Temp;Humidity;BMP_temperature;BMP_pressure;BME280_temperature;BME280_humidity;BME280_pressure;Samples;Min_cycle;Max_cycle;Signal;HPM_P1;HPM_P2
2021/11/13 00:00:59;;;;;;;25.95;17.88;;;;;;;;;;5114402;28;20024;-71
2021/11/13 00:03:25;;;;;;;26.23;17.98;;;;;;;;;;5114643;28;20024;-70
2021/11/13 00:05:51;;;;;;;24.45;17.15;;;;;;;;;;5111256;28;20482;-76
2021/11/13 00:08:17;;;;;;;25.15;16.92;;;;;;;;;;5075976;28;20471;-77
2021/11/13 00:10:45;;;;;;;24.15;16.63;;;;;;;;;;5093901;28;20028;-72
2021/11/13 00:13:11;;;;;;;26.30;18.55;;;;;;;;;;5101454;28;20016;-75
2021/11/13 00:15:38;;;;;;;24.45;16.95;;;;;;;;;;5114321;28;20031;-74
2021/11/13 00:18:04;;;;;;;23.58;16.90;;;;;;;;;;5112954;28;20027;-73
2021/11/13 00:20:30;;;;;;;27.83;17.85;;;;;;;;;;5114200;28;20020;-75
2021/11/13 00:22:58;;;;;;;26.17;17.05;;;;;;;;;;5111429;28;20759;-74
2021/11/13 00:25:24;;;;;;;25.70;17.75;;;;;;;;;;5094002;28;20032;-74
2021/11/13 00:27:50;;;;;;;25.40;17.88;;;;;;;;;;5076006;28;20387;-76
2021/11/13 00:30:17;;;;;;;25.40;17.23;;;;;;;;;;5093532;28;20107;-73
2021/11/13 00:32:44;;;;;;;25.65;18.17;;;;;;;;;;5093740;28;20024;-72
2021/11/13 00:35:10;;;;;;;25.52;16.58;;;;;;;;;;5075529;28;20414;-75
2021/11/13 00:37:36;;;;;;;24.10;16.60;;;;;;;;;;5075666;28;20396;-74
2021/11/13 00:40:03;;;;;;;23.98;16.85;;;;;;;;;;5094113;28;20479;-74
2021/11/13 00:42:29;;;;;;;23.95;16.98;;;;;;;;;;5093437;28;20020;-73
2021/11/13 00:44:55;;;;;;;24.77;16.80;;;;;;;;;;5093389;28;20472;-75
2021/11/13 00:47:21;;;;;;;23.40;16.70;;;;;;;;;;5075373;28;20093;-72
2021/11/13 00:49:47;;;;;;;24.45;17.95;;;;;;;;;;5101898;28;20414;-74
2021/11/13 00:52:13;;;;;;;23.38;16.30;;;;;;;;;;5113740;28;20062;-72
2021/11/13 00:54:40;;;;;;;24.10;16.55;;;;;;;;;;5094573;28;20487;-75
2021/11/13 00:57:09;;;;;;;22.17;15.40;;;;;;;;;;5093580;28;20040;-73
2021/11/13 00:59:37;;;;;;;23.70;15.98;;;;;;;;;;5093024;28;20379;-74
2021/11/13 01:02:04;;;;;;;24.02;16.77;;;;;;;;;;5092670;28;20024;-73
2021/11/13 01:04:30;;;;;;;24.00;15.85;;;;;;;;;;5074907;28;20495;-75
2021/11/13 01:06:56;;;;;;;21.67;15.43;;;;;;;;;;5092775;28;20130;-74
2021/11/13 01:09:22;;;;;;;22.80;15.82;;;;;;;;;;5074784;28;20060;-72
2021/11/13 01:11:49;;;;;;;24.95;17.10;;;;;;;;;;5092813;28;20023;-73
2021/11/13 01:14:15;;;;;;;21.75;15.45;;;;;;;;;;5074995;28;20021;-72
2021/11/13 01:16:41;;;;;;;22.35;16.65;;;;;;;;;;5092937;28;20055;-72
2021/11/13 01:19:07;;;;;;;23.75;17.27;;;;;;;;;;5092884;28;20031;-73
2021/11/13 01:21:34;;;;;;;22.05;15.88;;;;;;;;;;5092522;28;20026;-72
2021/11/13 01:24:00;;;;;;;24.25;16.10;;;;;;;;;;5074445;28;20114;-70
2021/11/13 01:26:26;;;;;;;22.52;16.23;;;;;;;;;;5074569;28;20032;-74
2021/11/13 01:28:52;;;;;;;24.65;17.38;;;;;;;;;;5092692;28;20016;-73
2021/11/13 01:31:18;;;;;;;22.33;15.63;;;;;;;;;;5074778;28;20032;-74
2021/11/13 01:33:45;;;;;;;26.15;16.95;;;;;;;;;;5092929;28;20020;-71
2021/11/13 01:36:12;;;;;;;23.77;16.83;;;;;;;;;;5092192;28;20099;-74
2021/11/13 01:38:38;;;;;;;24.13;16.48;;;;;;;;;;5092051;28;20052;-74
2021/11/13 01:41:09;;;;;;;22.30;16.58;;;;;;;;;;5092494;28;20106;-73
2021/11/13 01:43:37;;;;;;;22.40;16.25;;;;;;;;;;5073939;28;20074;-72
2021/11/13 01:46:04;;;;;;;22.90;16.38;;;;;;;;;;5091945;28;20601;-73
2021/11/13 01:48:30;;;;;;;22.33;15.60;;;;;;;;;;5092795;28;20020;-73
2021/11/13 01:50:57;;;;;;;24.70;16.92;;;;;;;;;;5110036;28;20110;-75
2021/11/13 01:53:28;;;;;;;23.75;17.13;;;;;;;;;;5094290;28;20551;-73
2021/11/13 01:55:56;;;;;;;22.88;16.02;;;;;;;;;;5112668;28;20039;-72
2021/11/13 01:58:22;;;;;;;23.05;16.05;;;;;;;;;;5112505;28;20020;-74
2021/11/13 02:00:52;;;;;;;23.00;15.75;;;;;;;;;;5112325;28;20103;-74
2021/11/13 02:03:19;;;;;;;25.02;17.52;;;;;;;;;;5112311;28;20015;-73
2021/11/13 02:05:46;;;;;;;24.92;16.20;;;;;;;;;;5111442;28;20099;-72
2021/11/13 02:08:12;;;;;;;21.58;15.85;;;;;;;;;;5104921;28;20024;-71
2021/11/13 02:10:39;;;;;;;24.55;16.17;;;;;;;;;;5091502;28;20028;-72
2021/11/13 02:13:05;;;;;;;23.75;15.77;;;;;;;;;;5091778;28;20027;-75
2021/11/13 02:15:31;;;;;;;27.45;16.63;;;;;;;;;;5091849;28;20024;-74
2021/11/13 02:17:58;;;;;;;26.70;16.30;;;;;;;;;;5091159;28;20383;-73
2021/11/13 02:20:32;;;;;;;25.88;16.35;;;;;;;;;;5091821;28;20098;-72
2021/11/13 02:23:01;;;;;;;24.52;16.25;;;;;;;;;;5092233;28;20028;-72
2021/11/13 02:25:28;;;;;;;25.30;16.98;;;;;;;;;;5091660;28;20016;-74
2021/11/13 02:27:54;;;;;;;24.02;16.95;;;;;;;;;;5073631;28;20020;-72
2021/11/13 02:30:20;;;;;;;30.58;18.35;;;;;;;;;;5091529;28;20498;-67
2021/11/13 02:32:47;;;;;;;29.67;17.40;;;;;;;;;;5091465;28;20024;-71
2021/11/13 02:35:14;;;;;;;30.77;17.70;;;;;;;;;;5091610;28;20043;-73
2021/11/13 02:37:43;;;;;;;28.65;17.38;;;;;;;;;;5091605;28;20052;-67
2021/11/13 02:40:10;;;;;;;27.52;17.65;;;;;;;;;;5073877;28;20024;-72
2021/11/13 02:42:37;;;;;;;25.90;17.42;;;;;;;;;;5091514;28;20037;-70
2021/11/13 02:45:07;;;;;;;28.85;17.52;;;;;;;;;;5091998;28;20024;-73
2021/11/13 02:47:34;;;;;;;25.85;16.88;;;;;;;;;;5091566;28;20163;-75
2021/11/13 02:50:01;;;;;;;26.75;17.83;;;;;;;;;;5101557;28;20020;-75
2021/11/13 02:52:28;;;;;;;26.67;17.48;;;;;;;;;;5093707;28;20451;-71
2021/11/13 02:54:54;;;;;;;27.27;18.33;;;;;;;;;;5111857;28;20425;-70
2021/11/13 02:57:20;;;;;;;29.35;18.15;;;;;;;;;;5110887;28;20054;-75
2021/11/13 02:59:47;;;;;;;35.22;19.08;;;;;;;;;;5111371;28;20077;-76
2021/11/13 03:02:13;;;;;;;33.00;19.88;;;;;;;;;;5112065;28;20032;-74
2021/11/13 03:04:39;;;;;;;35.75;20.70;;;;;;;;;;5093609;28;20027;-74
2021/11/13 03:07:07;;;;;;;36.28;20.27;;;;;;;;;;5111727;28;20027;-71
2021/11/13 03:09:33;;;;;;;33.35;18.88;;;;;;;;;;5093372;28;20382;-75
2021/11/13 03:11:59;;;;;;;34.10;20.73;;;;;;;;;;5093761;28;20020;-74
2021/11/13 03:14:25;;;;;;;32.88;19.38;;;;;;;;;;5112152;28;20066;-72
2021/11/13 03:16:52;;;;;;;36.20;20.35;;;;;;;;;;5111783;28;20051;-74
2021/11/13 03:19:18;;;;;;;30.70;18.58;;;;;;;;;;5111732;28;20031;-71
2021/11/13 03:21:45;;;;;;;33.90;20.55;;;;;;;;;;5111803;28;20016;-72
2021/11/13 03:24:11;;;;;;;35.88;19.77;;;;;;;;;;5093523;28;20107;-71
2021/11/13 03:26:38;;;;;;;33.80;19.98;;;;;;;;;;5111689;28;20149;-71
2021/11/13 03:29:14;;;;;;;36.30;19.05;;;;;;;;;;5094794;28;20024;-67
2021/11/13 03:31:42;;;;;;;35.92;21.27;;;;;;;;;;5115735;28;20028;-71
2021/11/13 03:34:08;;;;;;;36.42;21.33;;;;;;;;;;5115736;28;20030;-71
2021/11/13 03:36:34;;;;;;;39.03;21.45;;;;;;;;;;5115835;28;20028;-70
2021/11/13 03:39:00;;;;;;;37.50;20.50;;;;;;;;;;5115831;28;20119;-70
2021/11/13 03:41:28;;;;;;;38.55;21.05;;;;;;;;;;5115806;28;20020;-71
2021/11/13 03:43:54;;;;;;;38.13;21.38;;;;;;;;;;5115782;28;20020;-71
2021/11/13 03:46:20;;;;;;;34.92;20.88;;;;;;;;;;5115676;28;20047;-70
2021/11/13 03:48:46;;;;;;;39.17;21.05;;;;;;;;;;5115615;28;20023;-71
2021/11/13 03:51:12;;;;;;;39.38;21.98;;;;;;;;;;5115442;28;20111;-71
2021/11/13 03:53:39;;;;;;;37.78;21.42;;;;;;;;;;5115442;28;20027;-71
2021/11/13 03:56:05;;;;;;;40.78;23.98;;;;;;;;;;5115679;28;20028;-70
2021/11/13 03:58:31;;;;;;;37.70;21.88;;;;;;;;;;5115672;28;20024;-76
2021/11/13 04:00:57;;;;;;;41.25;22.35;;;;;;;;;;5115398;28;20046;-72
2021/11/13 04:03:23;;;;;;;40.17;21.48;;;;;;;;;;5096917;28;20020;-75
2021/11/13 04:05:49;;;;;;;38.88;22.05;;;;;;;;;;5114985;28;20374;-74
2021/11/13 04:08:15;;;;;;;40.15;21.77;;;;;;;;;;5115126;28;20106;-74
2021/11/13 04:10:42;;;;;;;41.65;23.05;;;;;;;;;;5114950;28;20019;-73
2021/11/13 04:13:08;;;;;;;40.13;21.88;;;;;;;;;;5115021;28;20023;-75
2021/11/13 04:15:34;;;;;;;39.67;22.63;;;;;;;;;;5115200;28;20102;-81
2021/11/13 04:18:01;;;;;;;40.63;22.90;;;;;;;;;;5115459;28;20474;-75
2021/11/13 04:20:27;;;;;;;39.20;21.42;;;;;;;;;;5114724;28;20019;-71
2021/11/13 04:22:53;;;;;;;40.58;22.15;;;;;;;;;;5114758;28;20023;-72
2021/11/13 04:25:20;;;;;;;38.35;21.58;;;;;;;;;;5114639;28;20038;-71
2021/11/13 04:27:46;;;;;;;38.00;21.90;;;;;;;;;;5114644;28;20044;-77
2021/11/13 04:30:13;;;;;;;39.85;22.50;;;;;;;;;;5114662;28;20023;-76
2021/11/13 04:32:40;;;;;;;41.40;22.10;;;;;;;;;;5114332;28;20161;-71
2021/11/13 04:35:20;;;;;;;38.78;23.02;;;;;;;;;;5114379;28;20019;-72
2021/11/13 04:37:47;;;;;;;41.63;23.08;;;;;;;;;;5114250;28;20043;-72
2021/11/13 04:40:13;;;;;;;43.88;24.23;;;;;;;;;;5095692;28;20085;-75
2021/11/13 04:42:39;;;;;;;40.42;22.75;;;;;;;;;;5114084;28;20024;-74
2021/11/13 04:45:06;;;;;;;45.30;24.50;;;;;;;;;;5114340;28;20043;-75
2021/11/13 04:47:33;;;;;;;38.50;22.48;;;;;;;;;;5114163;28;20026;-74
2021/11/13 04:50:00;;;;;;;39.67;22.27;;;;;;;;;;5095867;28;20047;-74
2021/11/13 04:52:27;;;;;;;37.15;21.15;;;;;;;;;;5114238;28;20027;-74
2021/11/13 04:54:53;;;;;;;41.20;23.00;;;;;;;;;;5095897;28;20088;-74
2021/11/13 04:57:19;;;;;;;40.05;22.52;;;;;;;;;;5095004;28;20055;-74
2021/11/13 04:59:45;;;;;;;41.42;23.15;;;;;;;;;;5093224;28;20081;-74
2021/11/13 05:02:11;;;;;;;43.88;24.73;;;;;;;;;;5075429;28;20032;-74
2021/11/13 05:04:37;;;;;;;40.90;24.00;;;;;;;;;;5093505;28;20020;-73
2021/11/13 05:07:03;;;;;;;43.88;24.05;;;;;;;;;;5093411;28;20024;-73
2021/11/13 05:09:29;;;;;;;42.38;22.80;;;;;;;;;;5092900;28;20024;-66
2021/11/13 05:11:55;;;;;;;43.85;23.98;;;;;;;;;;5074059;28;20487;-74
2021/11/13 05:14:21;;;;;;;41.67;25.15;;;;;;;;;;5093040;28;20016;-74
2021/11/13 05:16:47;;;;;;;40.25;22.73;;;;;;;;;;5093113;28;20047;-74
2021/11/13 05:19:13;;;;;;;39.10;24.13;;;;;;;;;;5092876;28;20128;-72
2021/11/13 05:21:40;;;;;;;39.70;22.15;;;;;;;;;;5093026;28;20016;-75
2021/11/13 05:24:06;;;;;;;41.10;24.13;;;;;;;;;;5074852;28;20055;-73
2021/11/13 05:26:32;;;;;;;40.22;23.83;;;;;;;;;;5092888;28;20031;-73
2021/11/13 05:28:58;;;;;;;43.83;24.20;;;;;;;;;;5092735;28;20087;-74
2021/11/13 05:31:24;;;;;;;43.20;24.33;;;;;;;;;;5093030;28;20371;-75
2021/11/13 05:33:50;;;;;;;41.85;24.02;;;;;;;;;;5074681;28;20077;-74
2021/11/13 05:36:16;;;;;;;44.95;24.10;;;;;;;;;;5092649;28;20107;-74
2021/11/13 05:38:42;;;;;;;41.47;23.55;;;;;;;;;;5092685;28;20056;-75
2021/11/13 05:41:09;;;;;;;39.05;23.45;;;;;;;;;;5092730;28;20016;-74
2021/11/13 05:43:35;;;;;;;40.55;24.55;;;;;;;;;;5074541;28;20028;-74
2021/11/13 05:46:01;;;;;;;38.60;21.73;;;;;;;;;;5074509;28;20027;-73
2021/11/13 05:48:27;;;;;;;39.50;23.17;;;;;;;;;;5092548;28;20016;-73
2021/11/13 05:50:53;;;;;;;39.50;23.17;;;;;;;;;;5092618;28;20479;-74
2021/11/13 05:53:19;;;;;;;36.63;21.92;;;;;;;;;;5091728;28;20036;-74
2021/11/13 05:55:45;;;;;;;39.75;23.00;;;;;;;;;;5092462;28;20165;-75
2021/11/13 05:58:13;;;;;;;38.22;23.20;;;;;;;;;;5092509;28;20027;-74
2021/11/13 06:00:39;;;;;;;40.92;22.55;;;;;;;;;;5074303;28;20028;-76
2021/11/13 06:03:05;;;;;;;38.17;23.55;;;;;;;;;;5092497;28;20105;-74
2021/11/13 06:05:31;;;;;;;37.67;22.23;;;;;;;;;;5092414;28;20020;-73
2021/11/13 06:07:57;;;;;;;37.58;21.63;;;;;;;;;;5092242;28;20030;-70
2021/11/13 06:10:23;;;;;;;42.30;22.75;;;;;;;;;;5092242;28;20024;-74
2021/11/13 06:12:49;;;;;;;39.53;22.90;;;;;;;;;;5093447;28;20024;-77
2021/11/13 06:15:16;;;;;;;38.50;23.17;;;;;;;;;;5092705;28;20020;-74
2021/11/13 06:17:42;;;;;;;39.28;22.35;;;;;;;;;;5092530;28;20570;-78
2021/11/13 06:20:09;;;;;;;39.17;22.98;;;;;;;;;;5092175;28;20028;-78
2021/11/13 06:22:35;;;;;;;34.55;20.33;;;;;;;;;;5073862;28;20035;-81
2021/11/13 06:25:01;;;;;;;34.63;21.55;;;;;;;;;;5091837;28;20016;-73
2021/11/13 06:27:27;;;;;;;36.97;22.30;;;;;;;;;;5091482;28;20368;-74
2021/11/13 06:29:53;;;;;;;38.28;21.27;;;;;;;;;;5091789;28;20118;-74
2021/11/13 06:32:19;;;;;;;34.47;21.08;;;;;;;;;;5091797;28;20016;-75
2021/11/13 06:34:45;;;;;;;37.83;21.25;;;;;;;;;;5091710;28;20140;-74
2021/11/13 06:37:11;;;;;;;37.58;21.33;;;;;;;;;;5091587;28;20055;-75
2021/11/13 06:39:38;;;;;;;33.13;20.10;;;;;;;;;;5074062;28;20404;-77
2021/11/13 06:42:04;;;;;;;35.85;20.98;;;;;;;;;;5074364;28;20078;-76
2021/11/13 06:44:31;;;;;;;35.13;21.13;;;;;;;;;;5092395;28;20051;-75
2021/11/13 06:46:57;;;;;;;32.65;19.90;;;;;;;;;;5073526;28;20019;-75
2021/11/13 06:49:23;;;;;;;34.60;19.83;;;;;;;;;;5073348;28;20037;-75
2021/11/13 06:51:49;;;;;;;37.90;21.38;;;;;;;;;;5091637;28;20099;-75
2021/11/13 06:54:15;;;;;;;32.33;19.63;;;;;;;;;;5091586;28;20012;-73
2021/11/13 06:56:42;;;;;;;33.13;19.38;;;;;;;;;;5091880;28;20028;-72
2021/11/13 06:59:08;;;;;;;35.72;21.00;;;;;;;;;;5073403;28;20028;-72
2021/11/13 07:01:34;;;;;;;33.85;20.75;;;;;;;;;;5091448;28;20058;-73
2021/11/13 07:04:00;;;;;;;32.70;19.30;;;;;;;;;;5074525;28;20540;-72
2021/11/13 07:06:27;;;;;;;31.63;18.42;;;;;;;;;;5095663;28;20016;-72
2021/11/13 07:08:53;;;;;;;30.35;19.60;;;;;;;;;;5095684;28;20032;-73
2021/11/13 07:11:19;;;;;;;30.13;18.15;;;;;;;;;;5086029;28;20024;-73
2021/11/13 07:13:45;;;;;;;29.23;17.67;;;;;;;;;;5097677;28;20028;-73
2021/11/13 07:16:11;;;;;;;29.83;18.02;;;;;;;;;;5097661;28;20032;-72
2021/11/13 07:18:37;;;;;;;32.75;17.90;;;;;;;;;;5115946;28;20101;-73
2021/11/13 07:21:05;;;;;;;28.45;17.80;;;;;;;;;;5097719;28;20355;-71
2021/11/13 07:23:32;;;;;;;29.65;16.65;;;;;;;;;;5097480;28;20174;-73
2021/11/13 07:25:59;;;;;;;30.77;18.60;;;;;;;;;;5097455;28;20072;-73
2021/11/13 07:28:39;;;;;;;27.75;16.48;;;;;;;;;;5115763;28;20019;-73
2021/11/13 07:31:06;;;;;;;31.05;17.83;;;;;;;;;;5115532;28;20011;-72
2021/11/13 07:33:32;;;;;;;26.20;16.17;;;;;;;;;;5097257;28;20488;-72
2021/11/13 07:35:58;;;;;;;27.48;16.65;;;;;;;;;;5115492;28;20023;-73
2021/11/13 07:38:24;;;;;;;26.92;15.40;;;;;;;;;;5115637;28;20054;-73
2021/11/13 07:40:50;;;;;;;28.50;17.10;;;;;;;;;;5097127;28;20110;-72
2021/11/13 07:43:17;;;;;;;28.08;15.32;;;;;;;;;;5097173;28;20416;-75
2021/11/13 07:45:43;;;;;;;26.60;15.57;;;;;;;;;;5115353;28;20051;-73
2021/11/13 07:48:09;;;;;;;25.25;15.32;;;;;;;;;;5115314;28;20094;-74
2021/11/13 07:50:36;;;;;;;25.92;15.45;;;;;;;;;;5115390;28;20020;-75
2021/11/13 07:53:06;;;;;;;26.67;15.18;;;;;;;;;;5115060;28;20058;-76
2021/11/13 07:55:33;;;;;;;26.65;15.52;;;;;;;;;;5115177;28;20016;-76
2021/11/13 07:57:59;;;;;;;26.40;15.70;;;;;;;;;;5115331;28;20445;-78
2021/11/13 08:00:26;;;;;;;24.08;14.95;;;;;;;;;;5115000;28;20019;-74
2021/11/13 08:02:52;;;;;;;26.98;15.55;;;;;;;;;;5115235;28;20036;-74
2021/11/13 08:05:18;;;;;;;26.05;14.35;;;;;;;;;;5115157;28;20558;-72
2021/11/13 08:07:45;;;;;;;26.50;15.20;;;;;;;;;;5115153;28;20031;-73
2021/11/13 08:10:12;;;;;;;23.05;13.98;;;;;;;;;;5115143;28;20030;-74
2021/11/13 08:12:39;;;;;;;22.13;13.38;;;;;;;;;;5114789;28;20054;-75
2021/11/13 08:15:06;;;;;;;18.92;11.60;;;;;;;;;;5113969;28;20027;-74
2021/11/13 08:17:32;;;;;;;19.55;11.98;;;;;;;;;;5114435;28;20036;-75
2021/11/13 08:19:58;;;;;;;23.00;13.20;;;;;;;;;;5114699;28;20051;-74
2021/11/13 08:22:24;;;;;;;23.25;13.68;;;;;;;;;;5114728;28;20062;-76
2021/11/13 08:24:50;;;;;;;19.08;11.95;;;;;;;;;;5114674;28;20019;-75
2021/11/13 08:27:17;;;;;;;19.48;12.02;;;;;;;;;;5114690;28;20677;-76
2021/11/13 08:29:43;;;;;;;20.50;11.88;;;;;;;;;;5114696;28;20483;-76
2021/11/13 08:32:09;;;;;;;37.70;11.85;;;;;;;;;;5109196;28;20149;-72
2021/11/13 08:34:35;;;;;;;32.03;11.23;;;;;;;;;;5114444;28;20502;-76
2021/11/13 08:37:03;;;;;;;23.83;11.65;;;;;;;;;;5113807;28;20035;-76
2021/11/13 08:39:34;;;;;;;20.92;11.25;;;;;;;;;;5111332;28;20031;-71
2021/11/13 08:42:00;;;;;;;19.23;10.68;;;;;;;;;;5113868;28;20022;-74
2021/11/13 08:44:26;;;;;;;18.42;10.27;;;;;;;;;;5113707;28;20498;-74
2021/11/13 08:46:55;;;;;;;20.77;10.23;;;;;;;;;;5113578;28;20024;-74
2021/11/13 08:49:22;;;;;;;22.75;11.35;;;;;;;;;;5113576;28;20022;-75
2021/11/13 08:51:48;;;;;;;24.85;11.77;;;;;;;;;;5113505;28;20042;-74
2021/11/13 08:54:14;;;;;;;23.20;12.60;;;;;;;;;;5113781;28;20083;-71
2021/11/13 08:56:40;;;;;;;18.58;10.55;;;;;;;;;;5095342;28;20502;-74
2021/11/13 08:59:06;;;;;;;20.92;10.25;;;;;;;;;;5095274;28;20027;-68
2021/11/13 09:01:33;;;;;;;19.73;9.73;;;;;;;;;;5113492;28;20020;-74
2021/11/13 09:04:00;;;;;;;17.38;10.40;;;;;;;;;;5108586;28;20465;-72
2021/11/13 09:06:30;;;;;;;15.88;10.27;;;;;;;;;;5113049;28;20018;-74
2021/11/13 09:08:58;;;;;;;21.35;11.63;;;;;;;;;;5109434;28;20023;-73
2021/11/13 09:11:25;;;;;;;17.38;11.45;;;;;;;;;;5107740;28;20027;-72
2021/11/13 09:13:51;;;;;;;19.25;10.65;;;;;;;;;;5104637;28;20023;-73
2021/11/13 09:16:17;;;;;;;19.27;11.40;;;;;;;;;;5112769;28;20110;-73
2021/11/13 09:18:44;;;;;;;18.33;10.60;;;;;;;;;;5113073;28;20087;-74
2021/11/13 09:21:10;;;;;;;19.63;11.27;;;;;;;;;;5113385;28;20605;-76
2021/11/13 09:23:37;;;;;;;21.73;12.30;;;;;;;;;;5086253;28;20110;-74
2021/11/13 09:26:06;;;;;;;18.80;10.68;;;;;;;;;;5109752;28;20027;-75
2021/11/13 09:28:32;;;;;;;17.88;10.27;;;;;;;;;;5107810;28;20066;-76
2021/11/13 09:31:00;;;;;;;22.48;11.45;;;;;;;;;;5110610;28;20047;-79
2021/11/13 09:33:27;;;;;;;19.23;10.80;;;;;;;;;;5105642;28;20051;-78
2021/11/13 09:35:53;;;;;;;19.63;10.68;;;;;;;;;;5094543;28;20019;-75
2021/11/13 09:38:21;;;;;;;18.08;10.02;;;;;;;;;;5112683;28;20035;-77
2021/11/13 09:40:47;;;;;;;22.45;12.05;;;;;;;;;;5107759;28;20723;-76
2021/11/13 09:43:15;;;;;;;15.98;9.40;;;;;;;;;;5112794;28;20051;-76
2021/11/13 09:45:41;;;;;;;20.65;11.10;;;;;;;;;;5091645;28;20027;-76
2021/11/13 09:48:07;;;;;;;22.33;12.45;;;;;;;;;;5107463;28;20115;-75
2021/11/13 09:50:36;;;;;;;19.30;11.13;;;;;;;;;;5108072;28;20023;-76
2021/11/13 09:53:02;;;;;;;19.05;10.15;;;;;;;;;;5089882;28;20536;-78
2021/11/13 09:55:28;;;;;;;19.23;10.77;;;;;;;;;;5110206;28;20755;-75
2021/11/13 09:57:55;;;;;;;23.55;11.57;;;;;;;;;;5094363;28;20487;-74
2021/11/13 10:00:31;;;;;;;21.25;11.45;;;;;;;;;;5112718;28;20027;-76
2021/11/13 10:02:58;;;;;;;20.95;10.43;;;;;;;;;;5097545;28;20028;-75
2021/11/13 10:05:24;;;;;;;20.50;11.35;;;;;;;;;;5111240;28;20011;-70
2021/11/13 10:07:50;;;;;;;21.02;11.02;;;;;;;;;;5111696;28;20020;-74
2021/11/13 10:10:27;;;;;;;20.92;11.45;;;;;;;;;;5114430;28;20043;-67
2021/11/13 10:12:56;;;;;;;20.05;11.27;;;;;;;;;;5112090;28;20033;-73
2021/11/13 10:15:36;;;;;;;22.35;11.95;;;;;;;;;;5111980;28;20045;-69
2021/11/13 10:18:05;;;;;;;23.83;10.88;;;;;;;;;;5112272;28;20035;-74
2021/11/13 10:20:31;;;;;;;24.15;12.95;;;;;;;;;;5112551;28;20016;-73
2021/11/13 10:22:57;;;;;;;25.52;11.90;;;;;;;;;;5112393;28;20024;-69
2021/11/13 10:25:23;;;;;;;31.25;13.98;;;;;;;;;;5104252;27;20016;-69
2021/11/13 10:28:06;;;;;;;33.30;13.73;;;;;;;;;;5089294;28;20429;-74
2021/11/13 10:30:32;;;;;;;29.85;13.65;;;;;;;;;;5103624;28;20028;-73
2021/11/13 10:32:58;;;;;;;22.42;12.02;;;;;;;;;;5078132;28;20115;-72
2021/11/13 10:35:44;;;;;;;29.77;12.52;;;;;;;;;;5073461;28;20363;-69
2021/11/13 10:38:20;;;;;;;27.65;13.25;;;;;;;;;;5088230;28;20126;-67
2021/11/13 10:40:54;;;;;;;25.75;11.85;;;;;;;;;;5108679;28;20058;-73
2021/11/13 10:43:30;;;;;;;25.90;13.75;;;;;;;;;;5097800;28;20360;-72
2021/11/13 10:46:01;;;;;;;28.40;12.05;;;;;;;;;;5091275;28;20398;-72
2021/11/13 10:48:27;;;;;;;26.25;13.63;;;;;;;;;;5091188;28;20036;-71
2021/11/13 10:51:01;;;;;;;25.40;13.13;;;;;;;;;;5091412;28;20043;-74
2021/11/13 10:53:28;;;;;;;25.52;12.30;;;;;;;;;;5091297;28;20016;-74
2021/11/13 10:56:08;;;;;;;28.40;13.80;;;;;;;;;;5073049;28;20031;-73
2021/11/13 10:58:52;;;;;;;30.15;13.77;;;;;;;;;;5106633;28;20015;-73
2021/11/13 11:04:13;;;;;;;26.20;12.98;;;;;;;;;;5107081;28;20034;-73
2021/11/13 11:06:41;;;;;;;23.75;11.73;;;;;;;;;;5109243;28;20031;-71
2021/11/13 11:09:22;;;;;;;28.70;12.73;;;;;;;;;;5109369;28;20031;-72
2021/11/13 11:11:49;;;;;;;19.77;11.60;;;;;;;;;;5107510;28;20024;-71
2021/11/13 11:14:19;;;;;;;22.88;12.10;;;;;;;;;;5105982;28;20042;-73
2021/11/13 11:16:51;;;;;;;35.40;13.25;;;;;;;;;;5103311;28;20041;-73
2021/11/13 11:19:26;;;;;;;25.30;11.23;;;;;;;;;;5096382;28;20020;-72
2021/11/13 11:21:58;;;;;;;28.30;12.38;;;;;;;;;;5089095;28;20047;-72
2021/11/13 11:24:24;;;;;;;23.20;12.18;;;;;;;;;;5101400;28;20020;-68
2021/11/13 11:27:16;;;;;;;20.73;11.48;;;;;;;;;;5090181;28;20409;-73
2021/11/13 11:29:45;;;;;;;27.80;12.73;;;;;;;;;;5059454;28;20081;-72
2021/11/13 11:32:14;;;;;;;26.38;13.25;;;;;;;;;;5090415;28;20375;-73
2021/11/13 11:34:41;;;;;;;22.83;12.98;;;;;;;;;;5090213;28;20036;-72
2021/11/13 11:37:13;;;;;;;25.55;12.48;;;;;;;;;;5081934;28;20081;-72
2021/11/13 11:39:40;;;;;;;26.02;13.48;;;;;;;;;;5071973;28;20077;-72
2021/11/13 11:42:07;;;;;;;25.70;12.18;;;;;;;;;;5071845;28;20028;-70
2021/11/13 11:44:35;;;;;;;24.85;13.63;;;;;;;;;;5090798;28;20023;-71
2021/11/13 11:47:01;;;;;;;30.27;14.73;;;;;;;;;;5072313;28;20020;-69
2021/11/13 11:49:28;;;;;;;24.70;14.35;;;;;;;;;;5072063;28;20029;-71
2021/11/13 11:51:54;;;;;;;32.30;13.90;;;;;;;;;;5093851;28;20537;-73
2021/11/13 11:54:20;;;;;;;31.20;12.57;;;;;;;;;;5093709;28;20069;-72
2021/11/13 11:56:46;;;;;;;24.08;13.30;;;;;;;;;;5093952;28;20036;-71
2021/11/13 11:59:13;;;;;;;21.33;13.10;;;;;;;;;;5075547;28;20024;-73
2021/11/13 12:01:41;;;;;;;23.67;13.18;;;;;;;;;;5094238;28;20028;-69
2021/11/13 12:04:16;;;;;;;24.15;12.65;;;;;;;;;;5110645;28;20008;-71
2021/11/13 12:06:47;;;;;;;24.73;13.88;;;;;;;;;;5075722;28;20066;-72
2021/11/13 12:09:13;;;;;;;24.10;13.52;;;;;;;;;;5093680;28;20364;-69
2021/11/13 12:11:39;;;;;;;25.85;13.80;;;;;;;;;;5093642;28;20028;-71
2021/11/13 12:14:23;;;;;;;23.85;12.82;;;;;;;;;;5093605;28;20032;-73
2021/11/13 12:16:50;;;;;;;25.52;13.70;;;;;;;;;;5094101;28;20049;-73
2021/11/13 12:19:16;;;;;;;32.38;14.40;;;;;;;;;;5093163;28;20024;-71
2021/11/13 12:22:03;;;;;;;25.25;14.02;;;;;;;;;;5093496;28;20020;-73
2021/11/13 12:24:29;;;;;;;30.83;13.50;;;;;;;;;;5075058;28;20048;-72
2021/11/13 12:26:59;;;;;;;30.77;13.82;;;;;;;;;;5075286;28;20016;-72
2021/11/13 12:29:25;;;;;;;31.05;13.93;;;;;;;;;;5107234;28;20102;-68
2021/11/13 12:31:51;;;;;;;28.27;13.45;;;;;;;;;;5093445;28;20016;-71
2021/11/13 12:34:20;;;;;;;26.15;13.25;;;;;;;;;;5107025;28;20099;-69
2021/11/13 12:37:08;;;;;;;22.67;12.52;;;;;;;;;;5093342;28;20115;-69
2021/11/13 12:39:43;;;;;;;26.77;13.55;;;;;;;;;;5093487;28;20156;-68
2021/11/13 12:42:10;;;;;;;28.27;13.25;;;;;;;;;;5091769;28;20015;-69
2021/11/13 12:44:38;;;;;;;28.90;14.10;;;;;;;;;;5101995;28;20055;-70
2021/11/13 12:47:12;;;;;;;21.90;12.40;;;;;;;;;;5103749;28;20058;-71
2021/11/13 12:49:40;;;;;;;29.35;14.63;;;;;;;;;;5104581;28;20027;-68
2021/11/13 12:52:11;;;;;;;25.67;13.20;;;;;;;;;;5104973;28;20061;-69
2021/11/13 12:54:38;;;;;;;29.85;13.98;;;;;;;;;;5108554;28;20020;-73
2021/11/13 12:57:23;;;;;;;29.45;13.55;;;;;;;;;;5100491;28;20125;-73
2021/11/13 12:59:56;;;;;;;28.45;13.77;;;;;;;;;;5092855;28;20073;-73
2021/11/13 13:02:23;;;;;;;31.00;14.05;;;;;;;;;;5098963;28;20020;-71
2021/11/13 13:04:49;;;;;;;31.15;14.20;;;;;;;;;;5100322;28;20024;-71
2021/11/13 13:07:16;;;;;;;24.70;13.20;;;;;;;;;;5101442;28;20048;-71
2021/11/13 13:09:58;;;;;;;29.02;14.40;;;;;;;;;;5093305;28;20062;-72
2021/11/13 13:12:26;;;;;;;31.70;15.23;;;;;;;;;;5093131;28;20073;-69
2021/11/13 13:15:12;;;;;;;28.23;14.07;;;;;;;;;;5101267;28;20111;-67
2021/11/13 13:17:40;;;;;;;29.90;15.85;;;;;;;;;;5093632;28;20043;-75
2021/11/13 13:20:08;;;;;;;28.60;14.90;;;;;;;;;;5092781;28;20016;-74
2021/11/13 13:22:35;;;;;;;35.33;15.82;;;;;;;;;;5093052;28;20043;-73
2021/11/13 13:25:03;;;;;;;28.92;14.15;;;;;;;;;;5093084;28;20020;-73
2021/11/13 13:27:29;;;;;;;33.50;15.55;;;;;;;;;;5092859;28;20046;-73
2021/11/13 13:29:58;;;;;;;31.83;16.83;;;;;;;;;;5092507;28;20145;-72
2021/11/13 13:32:24;;;;;;;30.58;15.98;;;;;;;;;;5074683;28;20024;-71
2021/11/13 13:34:58;;;;;;;29.17;14.75;;;;;;;;;;5074449;28;20095;-75
2021/11/13 13:37:26;;;;;;;28.05;15.02;;;;;;;;;;5092479;28;20040;-74
2021/11/13 13:39:53;;;;;;;29.70;15.65;;;;;;;;;;5080072;28;20076;-71
2021/11/13 13:42:20;;;;;;;30.23;14.73;;;;;;;;;;5092704;28;20027;-75
2021/11/13 13:44:47;;;;;;;31.92;17.60;;;;;;;;;;5074213;28;20108;-74
2021/11/13 13:47:13;;;;;;;31.95;16.05;;;;;;;;;;5082575;28;20030;-77
2021/11/13 13:49:39;;;;;;;33.10;17.90;;;;;;;;;;5109630;28;20012;-75
2021/11/13 13:52:07;;;;;;;30.85;16.38;;;;;;;;;;5091580;28;20034;-72
2021/11/13 13:54:39;;;;;;;32.58;17.10;;;;;;;;;;5095096;28;20544;-73
2021/11/13 13:57:07;;;;;;;32.75;16.67;;;;;;;;;;5074124;28;20376;-72
2021/11/13 13:59:34;;;;;;;35.13;17.02;;;;;;;;;;5092241;28;20024;-72
2021/11/13 14:02:17;;;;;;;32.53;17.10;;;;;;;;;;5106478;28;20031;-72
2021/11/13 14:04:43;;;;;;;;;;;;;;;;;;5094455;28;20475;-69
2021/11/13 14:07:17;;;;;;;39.50;18.38;;;;;;;;;;5092100;28;20007;-72
2021/11/13 14:09:43;;;;;;;30.70;16.75;;;;;;;;;;5091985;28;20024;-69
2021/11/13 14:12:09;;;;;;;30.95;15.85;;;;;;;;;;5091517;28;20020;-72
2021/11/13 14:14:35;;;;;;;29.05;15.15;;;;;;;;;;5091534;28;20065;-74
2021/11/13 14:17:02;;;;;;;27.33;14.50;;;;;;;;;;5093354;28;20082;-75
2021/11/13 14:19:28;;;;;;;36.53;17.10;;;;;;;;;;5091680;28;20020;-69
2021/11/13 14:22:02;;;;;;;34.42;17.73;;;;;;;;;;5085346;28;20028;-74
2021/11/13 14:24:28;;;;;;;32.97;18.05;;;;;;;;;;5111882;28;20408;-71